Time;durP1;ratioP1;P1;durP2;ratioP2;P2;SDS_P1;SDS_P2;PMS_P1;PMS_P2;Temp;Humidity;BMP_temperature;BMP_pressure;BME280_temperature;BME280_humidity;BME280_pressure;Samples;Min_cycle;Max_cycle;Signal;HPM_P1;HPM_P2
2022/06/08 00:00:09;;;;;;;;;4.00;3.67;;;;;17.09;72.83;100185.69;5045429;28;45450;-71
2022/06/08 00:02:35;;;;;;;;;4.00;4.00;;;;;17.08;73.84;100197.13;5046644;28;45404;-70
2022/06/08 00:05:00;;;;;;;;;6.00;4.67;;;;;17.04;74.43;100200.66;5046604;28;45588;-71
2022/06/08 00:07:26;;;;;;;;;5.67;4.00;;;;;17.02;74.77;100203.28;5045581;28;45513;-71
2022/06/08 00:09:52;;;;;;;;;4.00;4.00;;;;;16.98;74.69;100198.03;5047074;28;46112;-71
2022/06/08 00:12:18;;;;;;;;;5.00;5.00;;;;;17.06;74.94;100212.09;5045930;28;45587;-71
2022/06/08 00:14:45;;;;;;;;;6.33;5.67;;;;;17.06;74.68;100210.31;5045285;28;45567;-71
2022/06/08 00:17:11;;;;;;;;;5.67;4.67;;;;;17.08;74.37;100202.41;5047142;28;45419;-71
2022/06/08 00:19:36;;;;;;;;;4.67;4.00;;;;;16.95;74.20;100183.09;5045525;28;46020;-71
2022/06/08 00:22:02;;;;;;;;;6.00;5.00;;;;;17.07;74.34;100205.94;5045325;28;45319;-71
2022/06/08 00:24:28;;;;;;;;;6.33;5.00;;;;;17.07;74.44;100208.59;5046971;28;45280;-71
2022/06/08 00:26:54;;;;;;;;;5.00;5.00;;;;;17.06;74.49;100199.75;5045969;28;45490;-71
2022/06/08 00:29:19;;;;;;;;;5.67;5.00;;;;;17.04;73.88;100190.97;5045658;28;46098;-71
2022/06/08 00:31:45;;;;;;;;;4.67;4.33;;;;;17.04;74.43;100182.19;5046927;28;45451;-71
2022/06/08 00:34:11;;;;;;;;;4.33;4.33;;;;;16.88;74.43;100162.88;5045076;28;45501;-71
2022/06/08 00:36:36;;;;;;;;;4.67;4.67;;;;;17.00;74.76;100183.06;5046425;28;45743;-71
2022/06/08 00:39:03;;;;;;;;;6.33;6.00;;;;;17.00;74.74;100172.53;5046400;28;46099;-71
2022/06/08 00:41:43;;;;;;;;;5.00;4.00;;;;;16.93;74.99;100160.22;5044699;28;45394;-71
2022/06/08 00:44:16;;;;;;;;;6.67;6.00;;;;;17.01;75.01;100163.69;5044545;28;45165;-71
2022/06/08 00:46:43;;;;;;;;;5.00;4.33;;;;;17.03;74.93;100167.22;5045006;28;45423;-71
2022/06/08 00:49:19;;;;;;;;;5.00;5.00;;;;;17.03;75.05;100159.28;5046480;28;45520;-70
2022/06/08 00:51:45;;;;;;;;;4.33;4.00;;;;;17.03;74.73;100167.22;5046301;28;45250;-71
2022/06/08 00:54:19;;;;;;;;;7.67;6.00;;;;;17.03;74.79;100170.75;5044464;28;45449;-71
2022/06/08 00:56:50;;;;;;;;;5.00;5.00;;;;;17.02;74.87;100178.66;5044741;28;45434;-71
2022/06/08 00:59:16;;;;;;;;;5.33;4.00;;;;;17.01;74.14;100187.44;5045800;28;46240;-71
2022/06/08 01:01:42;;;;;;;;;5.00;4.00;;;;;16.84;73.71;100169.91;5045729;28;45446;-71
2022/06/08 01:04:14;;;;;;;;;3.33;3.00;;;;;16.75;73.81;100161.09;5044121;28;45373;-71
2022/06/08 01:06:42;;;;;;;;;6.33;5.00;;;;;16.69;74.61;100164.59;5045447;28;45462;-70
2022/06/08 01:09:24;;;;;;;;;5.67;5.33;;;;;16.69;75.04;100172.53;5046118;28;45449;-71
2022/06/08 01:11:49;;;;;;;;;7.00;5.00;;;;;16.68;75.40;100161.09;5046122;28;45403;-71
2022/06/08 01:14:18;;;;;;;;;6.00;5.33;;;;;16.71;75.47;100168.13;5044747;28;45360;-71
2022/06/08 01:16:48;;;;;;;;;6.00;5.67;;;;;16.73;75.40;100162.84;5045770;28;45334;-71
2022/06/08 01:19:14;;;;;;;;;5.00;5.00;;;;;16.57;75.20;100132.97;5046124;28;46189;-71
2022/06/08 01:21:39;;;;;;;;;7.00;5.00;;;;;16.75;74.91;100161.09;5046324;28;45553;-71
2022/06/08 01:24:09;;;;;;;;;4.67;4.00;;;;;16.69;74.74;100143.50;5051181;28;45591;-72
2022/06/08 01:26:48;;;;;;;;;5.00;4.33;;;;;16.76;74.84;100161.09;5052783;28;45551;-71
2022/06/08 01:29:26;;;;;;;;;5.67;5.33;;;;;16.75;74.76;100150.53;5052533;28;46128;-71
2022/06/08 01:32:04;;;;;;;;;5.00;4.33;;;;;16.74;74.73;100152.31;5052765;28;45260;-71
2022/06/08 01:34:54;;;;;;;;;4.00;4.00;;;;;16.73;74.88;100145.25;5053012;28;45493;-72
2022/06/08 01:37:37;;;;;;;;;4.00;4.00;;;;;16.73;75.18;100145.25;5052494;28;45365;-72
2022/06/08 01:40:16;;;;;;;;;6.00;4.00;;;;;16.75;75.53;100138.25;5055375;28;46266;-71
2022/06/08 01:42:51;;;;;;;;;4.00;4.00;;;;;16.79;75.24;100142.63;5052588;28;45648;-71
2022/06/08 01:45:37;;;;;;;;;5.00;5.00;;;;;16.84;74.96;100145.28;5052198;28;45760;-71
2022/06/08 01:48:50;;;;;;;;;5.33;4.00;;;;;16.87;74.84;100148.81;5053025;28;45807;-71
2022/06/08 01:51:49;;;;;;;;;7.00;5.00;;;;;16.88;73.82;100144.41;5037429;28;45994;-71
2022/06/08 01:54:34;;;;;;;;;4.00;4.00;;;;;16.74;74.65;100140.88;5050371;28;45497;-72
2022/06/08 01:57:38;;;;;;;;;6.00;5.00;;;;;16.69;74.90;100144.41;5051458;28;45231;-72
2022/06/08 02:00:08;;;;;;;;;5.33;4.67;;;;;16.70;75.05;100140.00;4989834;28;45380;-71
2022/06/08 02:02:39;;;;;;;;;5.67;5.67;;;;;16.70;75.36;100142.66;4990714;28;46214;-72
2022/06/08 02:05:23;;;;;;;;;6.00;5.00;;;;;16.58;75.25;100113.66;5021202;28;45298;-71
2022/06/08 02:08:18;;;;;;;;;5.00;4.67;;;;;16.80;75.08;100132.97;5052515;28;45315;-71
2022/06/08 02:11:01;;;;;;;;;4.67;4.33;;;;;16.88;74.79;100133.84;5052516;28;45408;-72
2022/06/08 02:13:42;;;;;;;;;4.67;3.00;;;;;16.93;74.51;100131.19;5052345;28;45407;-72
2022/06/08 02:16:14;;;;;;;;;3.33;3.33;;;;;16.94;74.46;100120.63;5049696;28;45502;-72
2022/06/08 02:18:46;;;;;;;;;7.33;6.00;;;;;16.80;74.42;100096.91;5051254;28;45307;-72
2022/06/08 02:21:20;;;;;;;;;6.00;5.00;;;;;16.98;74.40;100125.03;5052345;28;45501;-72
2022/06/08 02:23:53;;;;;;;;;5.67;5.00;;;;;16.97;74.08;100118.00;5058698;28;45536;-71
2022/06/08 02:26:26;;;;;;;;;4.33;4.33;;;;;16.88;73.69;100118.88;5049307;28;45579;-71
2022/06/08 02:28:56;;;;;;;;;6.00;5.00;;;;;16.75;74.70;100109.25;5050202;28;45462;-71
2022/06/08 02:31:30;;;;;;;;;6.00;5.00;;;;;16.72;74.56;100106.59;5051276;28;45486;-71
2022/06/08 02:36:51;;;;;;;;;5.33;4.33;;;;;16.75;75.15;100121.53;5048458;28;45391;-71
2022/06/08 02:39:23;;;;;;;;;5.00;5.00;;;;;16.77;75.34;100119.75;5048239;28;45347;-71
2022/06/08 02:41:54;;;;;;;;;6.33;5.67;;;;;16.79;75.45;100126.81;5048750;28;45438;-71
2022/06/08 02:44:26;;;;;;;;;5.00;4.00;;;;;16.74;75.00;100115.38;5047071;28;46259;-72
2022/06/08 02:47:40;;;;;;;;;8.00;6.00;;;;;16.75;75.23;100117.16;5046614;28;45451;-71
2022/06/08 02:50:17;;;;;;;;;5.00;5.00;;;;;16.75;75.32;100108.34;5051810;28;45494;-71
2022/06/08 02:52:45;;;;;;;;;6.00;5.00;;;;;16.82;75.26;100123.31;5048642;28;45562;-71
2022/06/08 02:55:37;;;;;;;;;5.00;4.00;;;;;16.78;75.24;100117.13;5048113;28;46161;-71
2022/06/08 02:58:11;;;;;;;;;6.33;6.00;;;;;16.94;75.02;100130.31;5047062;28;45442;-72
2022/06/08 03:00:47;;;;;;;;;6.33;5.00;;;;;16.97;74.58;100132.94;5048672;28;45315;-71
2022/06/08 03:03:19;;;;;;;;;6.33;5.33;;;;;17.01;74.72;100124.13;5048346;28;45499;-71
2022/06/08 03:05:57;;;;;;;;;6.67;5.00;;;;;16.94;74.34;100107.44;5047524;28;46142;-71
2022/06/08 03:08:35;;;;;;;;;5.67;5.00;;;;;16.94;74.29;100101.28;5048461;28;45490;-72
2022/06/08 03:11:04;;;;;;;;;5.00;4.33;;;;;16.97;74.47;100102.16;5047307;28;45372;-71
2022/06/08 03:13:52;;;;;;;;;5.00;5.00;;;;;17.06;74.46;100119.72;5048200;28;45657;-71
2022/06/08 03:16:35;;;;;;;;;6.00;5.00;;;;;17.07;74.70;100114.44;5047735;28;45607;-72
2022/06/08 03:19:01;;;;;;;;;7.00;6.00;;;;;17.03;74.61;100106.53;5047012;28;45444;-71
2022/06/08 03:21:27;;;;;;;;;6.00;5.00;;;;;17.10;73.89;100111.78;5047667;28;45470;-71
2022/06/08 03:23:55;;;;;;;;;4.00;4.00;;;;;17.07;74.06;100109.16;5046358;28;45424;-71
2022/06/08 03:26:23;;;;;;;;;6.00;6.00;;;;;16.95;74.73;100097.75;5047117;28;45496;-71
2022/06/08 03:28:49;;;;;;;;;5.00;4.67;;;;;17.06;74.90;100119.72;5047510;28;45473;-71
2022/06/08 03:31:14;;;;;;;;;5.67;5.67;;;;;17.09;75.23;100127.63;5045746;28;45456;-71
2022/06/08 03:33:40;;;;;;;;;5.00;4.67;;;;;17.13;75.09;100134.66;5047585;28;45370;-71
2022/06/08 03:36:06;;;;;;;;;7.00;6.00;;;;;17.13;74.98;100146.97;5047228;28;45413;-71
2022/06/08 03:38:32;;;;;;;;;5.33;5.00;;;;;17.12;74.77;100153.13;5045683;28;45430;-71
2022/06/08 03:40:58;;;;;;;;;7.00;5.00;;;;;17.07;74.42;100151.38;5047497;28;45473;-72
2022/06/08 03:43:24;;;;;;;;;5.67;4.33;;;;;16.92;74.92;100146.16;5047282;28;45447;-71
2022/06/08 03:45:57;;;;;;;;;7.00;6.00;;;;;17.01;75.39;100166.34;5045071;28;46120;-72
2022/06/08 03:48:23;;;;;;;;;5.00;4.67;;;;;17.02;75.36;100161.06;5062317;28;45497;-71
2022/06/08 03:50:53;;;;;;;;;5.00;4.33;;;;;17.03;75.15;100151.38;5045844;28;45493;-71
2022/06/08 03:53:25;;;;;;;;;5.00;5.00;;;;;17.13;75.35;100161.06;5055427;28;46386;-71
2022/06/08 03:55:52;;;;;;;;;7.00;6.33;;;;;17.06;75.35;100139.06;5045286;28;46135;-71
2022/06/08 03:58:20;;;;;;;;;5.00;4.67;;;;;17.20;75.27;100175.97;5047072;28;45389;-71
2022/06/08 04:00:46;;;;;;;;;6.00;5.00;;;;;17.23;75.07;100168.06;5046722;28;45501;-71
2022/06/08 04:03:12;;;;;;;;;3.00;3.00;;;;;17.15;74.97;100164.56;5045541;28;45482;-71
2022/06/08 04:05:38;;;;;;;;;4.67;4.67;;;;;17.23;75.08;100183.00;5046815;28;46129;-71
2022/06/08 04:08:04;;;;;;;;;5.67;5.00;;;;;17.24;75.08;100185.63;5046252;28;45993;-72
2022/06/08 04:10:31;;;;;;;;;4.33;4.33;;;;;17.29;75.06;100186.50;5045446;28;45831;-71
2022/06/08 04:12:57;;;;;;;;;7.67;6.67;;;;;17.35;74.76;100192.63;5047601;28;45345;-71
2022/06/08 04:18:08;;;;;;;;;4.67;4.67;;;;;17.23;74.61;100178.63;5047607;28;45386;-72
2022/06/08 04:20:35;;;;;;;;;4.67;4.33;;;;;17.39;74.60;100200.56;5047640;28;45395;-71
2022/06/08 04:23:00;;;;;;;;;8.33;7.67;;;;;17.48;74.45;100215.47;5045776;28;45361;-72
2022/06/08 04:25:27;;;;;;;;;4.67;4.67;;;;;17.30;74.25;100188.25;5045930;28;46233;-71
2022/06/08 04:27:53;;;;;;;;;5.00;3.67;;;;;17.48;74.43;100220.75;5047201;28;45468;-71
2022/06/08 04:30:19;;;;;;;;;5.33;4.33;;;;;17.48;74.44;100226.03;5045259;28;45217;-71
2022/06/08 04:32:45;;;;;;;;;5.33;4.00;;;;;17.49;74.53;100230.47;5045954;28;45505;-72
2022/06/08 04:35:12;;;;;;;;;5.00;4.00;;;;;17.53;74.58;100234.84;5046497;28;45564;-72
2022/06/08 04:37:37;;;;;;;;;4.33;3.33;;;;;17.55;74.66;100233.06;5046754;28;45972;-71
2022/06/08 04:40:10;;;;;;;;;6.00;5.33;;;;;17.60;74.57;100235.69;5045801;28;45299;-71
2022/06/08 04:42:35;;;;;;;;;5.00;4.67;;;;;17.65;74.33;100250.66;5044985;28;45515;-71
2022/06/08 04:45:03;;;;;;;;;6.00;5.67;;;;;17.68;74.19;100240.06;5046195;28;45533;-72
2022/06/08 04:47:28;;;;;;;;;8.67;4.33;;;;;17.73;73.97;100247.97;5046244;28;45545;-71
2022/06/08 04:49:54;;;;;;;;;6.00;5.67;;;;;17.73;73.98;100255.91;5044668;28;45494;-71
2022/06/08 04:52:19;;;;;;;;;9.00;6.33;;;;;17.74;73.75;100255.00;5062050;28;45416;-71
2022/06/08 04:54:45;;;;;;;;;4.00;4.00;;;;;17.80;73.58;100262.03;5045542;28;45521;-72
2022/06/08 04:57:11;;;;;;;;;7.00;5.00;;;;;17.75;73.72;100255.91;5043790;28;45509;-71
2022/06/08 04:59:37;;;;;;;;;5.67;5.67;;;;;17.79;73.48;100260.28;5046627;28;45521;-71
2022/06/08 05:02:03;;;;;;;;;5.00;4.67;;;;;17.80;73.45;100259.38;5045148;28;45529;-71
2022/06/08 05:04:29;;;;;;;;;5.67;5.00;;;;;17.83;73.52;100262.03;5044494;28;46647;-72
2022/06/08 05:06:54;;;;;;;;;6.33;4.33;;;;;17.81;73.66;100251.47;5046273;28;45225;-71
2022/06/08 05:09:20;;;;;;;;;5.33;5.33;;;;;17.90;73.52;100263.78;5044777;28;45506;-71
2022/06/08 05:11:45;;;;;;;;;5.00;5.00;;;;;17.94;73.52;100272.56;5045537;28;45502;-71
2022/06/08 05:14:11;;;;;;;;;5.00;5.00;;;;;17.97;73.01;100265.50;5046233;28;45506;-72
2022/06/08 05:16:36;;;;;;;;;5.67;5.33;;;;;18.01;73.27;100271.66;5044297;28;45590;-71
2022/06/08 05:19:02;;;;;;;;;6.33;5.33;;;;;17.93;73.31;100252.34;5045855;28;45763;-72
2022/06/08 05:21:28;;;;;;;;;5.67;5.00;;;;;18.03;73.37;100276.06;5045824;28;45488;-71
2022/06/08 05:23:53;;;;;;;;;4.33;3.67;;;;;18.06;73.43;100275.16;5044500;28;45589;-71
2022/06/08 05:26:19;;;;;;;;;4.00;4.00;;;;;18.08;73.26;100271.63;5046012;28;45383;-71
2022/06/08 05:28:44;;;;;;;;;5.00;4.67;;;;;17.99;73.24;100257.59;5045126;28;45457;-72
2022/06/08 05:31:10;;;;;;;;;9.67;9.33;;;;;18.17;73.42;100285.69;5044466;28;45399;-72
2022/06/08 05:33:36;;;;;;;;;7.33;6.33;;;;;18.22;73.38;100289.16;5045764;28;46174;-71
2022/06/08 05:36:03;;;;;;;;;4.67;4.33;;;;;18.23;73.48;100280.38;5044624;28;45381;-72
2022/06/08 05:38:28;;;;;;;;;5.67;4.33;;;;;18.25;72.62;100290.03;5044609;28;45395;-71
2022/06/08 05:40:54;;;;;;;;;5.67;4.00;;;;;18.17;72.72;100283.03;5046172;28;45312;-72
2022/06/08 05:43:20;;;;;;;;;5.33;5.00;;;;;18.08;73.42;100286.59;5045620;28;46074;-72
2022/06/08 05:45:47;;;;;;;;;9.67;8.00;;;;;18.01;73.63;100275.19;5043810;28;45489;-71
2022/06/08 05:48:14;;;;;;;;;10.33;8.00;;;;;18.07;73.20;100296.28;5045960;28;45485;-72
2022/06/08 05:50:40;;;;;;;;;6.67;6.00;;;;;17.96;73.73;100269.03;5045006;28;45602;-72
2022/06/08 05:53:06;;;;;;;;;9.33;9.33;;;;;18.06;73.99;100291.00;5042958;28;45585;-72
2022/06/08 05:55:33;;;;;;;;;7.00;6.33;;;;;18.03;74.09;100289.28;5045854;28;45437;-72
2022/06/08 05:57:58;;;;;;;;;5.00;4.67;;;;;18.09;73.42;100298.94;5043971;28;45260;-72
2022/06/08 06:00:27;;;;;;;;;7.00;6.00;;;;;18.16;73.79;100297.13;5044477;28;45459;-72
2022/06/08 06:02:54;;;;;;;;;6.00;5.00;;;;;18.19;73.76;100294.50;5043735;28;45442;-71
2022/06/08 06:05:23;;;;;;;;;5.00;4.67;;;;;18.21;73.39;100276.84;5044280;28;45523;-72
2022/06/08 06:07:49;;;;;;;;;5.00;5.00;;;;;18.11;73.65;100260.16;5043802;28;45362;-72
2022/06/08 06:10:16;;;;;;;;;5.00;4.00;;;;;18.14;73.61;100252.19;5048999;28;45382;-72
2022/06/08 06:12:42;;;;;;;;;6.67;5.67;;;;;18.26;73.27;100262.72;5048142;28;45326;-72
2022/06/08 06:15:10;;;;;;;;;6.67;6.67;;;;;18.34;73.10;100262.66;5047076;28;45546;-72
2022/06/08 06:17:36;;;;;;;;;6.00;5.67;;;;;18.40;72.96;100267.03;5049002;28;45441;-72
2022/06/08 06:20:02;;;;;;;;;6.33;5.67;;;;;18.44;72.86;100261.72;5048235;28;45419;-72
2022/06/08 06:22:32;;;;;;;;;6.33;5.00;;;;;18.02;72.46;100175.63;5046726;28;46103;-72
2022/06/08 06:25:00;;;;;;;;;6.00;5.00;;;;;18.53;72.64;100246.69;5044045;28;45528;-72
2022/06/08 06:27:26;;;;;;;;;5.67;5.67;;;;;18.57;72.63;100240.47;5039587;28;45449;-72
2022/06/08 06:29:52;;;;;;;;;4.00;4.00;;;;;18.47;72.58;100214.06;5039860;28;45467;-72
2022/06/08 06:32:27;;;;;;;;;6.00;5.33;;;;;18.64;73.27;100218.34;5039122;28;46223;-70
2022/06/08 06:34:54;;;;;;;;;5.67;5.00;;;;;18.81;73.00;100247.34;5039421;28;45348;-72
2022/06/08 06:37:20;;;;;;;;;5.00;5.00;;;;;18.94;72.83;100248.13;5039386;28;45285;-72
2022/06/08 06:39:46;;;;;;;;;6.67;6.00;;;;;19.02;73.28;100243.63;5039636;28;45215;-72
2022/06/08 06:42:16;;;;;;;;;6.00;5.00;;;;;19.14;72.67;100253.22;5045735;28;45937;-72
2022/06/08 06:44:42;;;;;;;;;4.00;4.00;;;;;19.19;72.56;100244.34;5048809;28;45733;-72
2022/06/08 06:47:08;;;;;;;;;4.00;4.00;;;;;19.32;72.02;100249.50;5047918;28;45404;-72
2022/06/08 06:49:33;;;;;;;;;6.00;6.00;;;;;19.37;71.50;100258.28;5046304;28;45559;-72
2022/06/08 06:51:59;;;;;;;;;6.33;6.33;;;;;19.39;71.32;100256.50;5048185;28;45548;-72
2022/06/08 06:54:25;;;;;;;;;8.00;6.67;;;;;19.48;70.80;100253.75;5045927;28;45943;-72
2022/06/08 06:56:51;;;;;;;;;4.00;4.00;;;;;19.57;70.88;100264.25;5047740;28;45422;-72
2022/06/08 06:59:16;;;;;;;;;5.67;5.00;;;;;19.70;70.14;100257.03;5046550;28;45331;-72
2022/06/08 07:01:42;;;;;;;;;6.00;6.00;;;;;19.87;69.35;100254.19;5047920;28;46524;-72
2022/06/08 07:04:08;;;;;;;;;6.67;6.00;;;;;20.05;68.92;100251.31;5047728;28;45566;-72
2022/06/08 07:06:33;;;;;;;;;6.00;6.00;;;;;20.26;68.10;100243.94;5046115;28;45469;-72
2022/06/08 07:08:59;;;;;;;;;6.00;5.00;;;;;20.51;67.55;100246.22;5047809;28;45380;-72
2022/06/08 07:11:37;;;;;;;;;10.00;10.00;;;;;20.75;67.53;100250.28;5043254;28;45518;-72
2022/06/08 07:14:05;;;;;;;;;7.33;6.00;;;;;20.97;66.18;100238.41;5040590;28;45316;-71
2022/06/08 07:16:32;;;;;;;;;4.00;4.00;;;;;21.19;65.15;100209.69;5055247;28;45536;-73
2022/06/08 07:18:59;;;;;;;;;5.00;4.00;;;;;21.64;64.94;100244.22;5047591;28;45513;-71
2022/06/08 07:21:24;;;;;;;;;4.00;4.00;;;;;21.82;64.09;100247.41;5048273;28;46166;-72
2022/06/08 07:23:51;;;;;;;;;5.00;4.67;;;;;21.72;64.20;100224.59;5042706;28;46480;-72
2022/06/08 07:26:19;;;;;;;;;6.33;5.33;;;;;21.88;63.66;100252.59;5044559;28;45491;-72
2022/06/08 07:28:45;;;;;;;;;7.67;6.67;;;;;21.85;64.25;100258.00;5041915;28;45502;-72
2022/06/08 07:31:14;;;;;;;;;5.33;5.00;;;;;21.77;64.17;100242.22;5047639;28;46033;-72
2022/06/08 07:33:40;;;;;;;;;5.67;4.67;;;;;21.78;62.84;100235.09;5048278;28;45441;-72
2022/06/08 07:36:06;;;;;;;;;6.67;6.00;;;;;21.94;63.34;100233.00;5047448;28;45422;-72
2022/06/08 07:38:32;;;;;;;;;8.00;7.33;;;;;22.06;61.79;100240.69;5048050;28;45681;-72
2022/06/08 07:40:58;;;;;;;;;4.00;4.00;;;;;22.23;62.22;100256.28;5048511;28;45417;-71
2022/06/08 07:43:24;;;;;;;;;5.67;4.00;;;;;22.37;61.31;100251.56;5038152;28;45371;-72
2022/06/08 07:45:50;;;;;;;;;4.67;4.00;;;;;22.43;60.74;100256.72;5037996;28;45379;-72
2022/06/08 07:51:01;;;;;;;;;7.67;5.00;;;;;22.48;60.59;100263.72;5038083;28;45823;-72
2022/06/08 07:53:26;;;;;;;;;4.67;4.33;;;;;22.37;61.00;100243.56;5038081;28;45288;-72
2022/06/08 07:55:52;;;;;;;;;6.00;5.33;;;;;22.50;60.51;100269.91;5053515;28;45549;-72
2022/06/08 07:58:17;;;;;;;;;6.00;5.00;;;;;22.46;61.60;100271.75;5038112;28;45347;-72
2022/06/08 08:00:46;;;;;;;;;4.67;4.67;;;;;22.48;61.00;100271.72;5037785;28;45439;-72
2022/06/08 08:03:16;;;;;;;;;6.00;6.00;;;;;22.48;60.89;100263.72;5037790;28;45422;-72
2022/06/08 08:05:42;;;;;;;;;5.00;4.67;;;;;22.59;60.41;100270.56;5037893;28;45274;-72
2022/06/08 08:08:08;;;;;;;;;5.00;5.00;;;;;22.63;60.12;100258.06;5037608;28;45437;-72
2022/06/08 08:10:34;;;;;;;;;5.00;4.00;;;;;22.79;59.66;100259.41;5037456;28;45441;-73
2022/06/08 08:13:00;;;;;;;;;4.00;4.00;;;;;22.59;59.23;100203.13;5037814;28;45439;-72
2022/06/08 08:15:27;;;;;;;;;5.00;5.00;;;;;22.75;59.11;100217.81;5036990;28;45575;-72
2022/06/08 08:17:53;;;;;;;;;4.67;4.33;;;;;23.03;59.30;100270.41;5036598;28;45515;-73
2022/06/08 08:20:19;;;;;;;;;6.00;5.00;;;;;23.10;58.78;100271.09;5037570;28;46410;-72
2022/06/08 08:22:46;;;;;;;;;7.00;5.67;;;;;22.74;57.01;100196.53;5037522;28;45264;-72
2022/06/08 08:25:15;;;;;;;;;5.00;5.00;;;;;22.93;56.24;100219.09;5037124;28;45474;-73
2022/06/08 08:27:41;;;;;;;;;5.00;5.00;;;;;23.19;55.90;100254.88;5036201;28;45530;-72
2022/06/08 08:30:07;;;;;;;;;5.00;5.00;;;;;23.22;56.39;100269.00;5037124;28;46204;-72
2022/06/08 08:32:32;;;;;;;;;5.67;5.67;;;;;23.05;55.87;100257.03;5037256;28;45422;-72
2022/06/08 08:34:58;;;;;;;;;5.67;5.00;;;;;23.10;56.48;100274.66;5037678;28;45450;-73
2022/06/08 08:37:23;;;;;;;;;5.00;5.00;;;;;23.10;56.36;100273.75;5037761;28;45839;-73
2022/06/08 08:39:49;;;;;;;;;7.33;6.33;;;;;23.05;56.66;100262.38;5037146;28;46111;-73
2022/06/08 08:42:21;;;;;;;;;5.00;4.00;;;;;23.11;55.84;100263.06;5037334;28;45281;-73
2022/06/08 08:44:53;;;;;;;;;5.00;5.00;;;;;23.42;55.79;100262.28;5037204;28;45261;-73
2022/06/08 08:47:47;;;;;;;;;5.67;3.67;;;;;23.98;53.67;100249.09;5037049;28;45512;-73
2022/06/08 08:50:33;;;;;;;;;6.67;6.00;;;;;24.68;53.16;100247.84;5037280;28;45389;-73
2022/06/08 08:53:22;;;;;;;;;5.67;5.00;;;;;25.56;51.17;100259.03;5037685;28;45309;-73
2022/06/08 08:56:01;;;;;;;;;5.00;5.00;;;;;26.01;50.25;100262.78;5037293;28;45503;-73
2022/06/08 08:58:30;;;;;;;;;5.67;5.67;;;;;26.43;48.90;100256.66;5037624;28;45572;-73
2022/06/08 09:00:59;;;;;;;;;6.33;5.33;;;;;26.58;47.53;100234.63;5035769;28;46249;-73
2022/06/08 09:03:34;;;;;;;;;5.00;5.00;;;;;26.88;47.87;100249.47;5036704;28;45331;-73
2022/06/08 09:06:09;;;;;;;;;5.33;5.33;;;;;26.96;47.64;100256.28;5037383;28;45456;-73
2022/06/08 09:08:34;;;;;;;;;5.00;5.00;;;;;26.98;46.71;100245.50;5037070;28;45485;-73
2022/06/08 09:11:02;;;;;;;;;8.33;6.00;;;;;27.14;45.87;100251.94;5037104;28;45428;-73
2022/06/08 09:14:00;;;;;;;;;4.33;4.00;;;;;27.15;46.08;100244.75;5038010;28;45335;-73
2022/06/08 09:16:37;;;;;;;;;4.67;4.00;;;;;27.00;46.65;100248.97;5032725;28;45554;-73
2022/06/08 09:19:21;;;;;;;;;5.00;4.33;;;;;26.78;47.22;100246.34;5037417;28;45458;-73
2022/06/08 09:21:54;;;;;;;;;5.33;4.67;;;;;26.63;46.64;100245.16;5037333;28;46061;-73
2022/06/08 09:24:46;;;;;;;;;5.00;4.00;;;;;26.59;47.44;100246.22;5036753;28;45378;-73
2022/06/08 09:27:15;;;;;;;;;5.00;5.00;;;;;26.61;47.07;100257.75;5036767;28;45300;-73
2022/06/08 09:29:49;;;;;;;;;5.33;5.33;;;;;26.51;47.32;100261.69;5036604;28;45298;-73
2022/06/08 09:32:32;;;;;;;;;6.33;5.67;;;;;26.55;46.92;100257.97;5038376;28;45402;-73
2022/06/08 09:35:04;;;;;;;;;5.00;5.00;;;;;26.64;47.35;100263.00;5036550;28;45584;-73
2022/06/08 09:37:31;;;;;;;;;6.67;6.00;;;;;26.58;46.70;100261.44;5036682;28;45197;-73
2022/06/08 09:40:01;;;;;;;;;5.00;5.00;;;;;26.59;47.57;100256.94;5036560;28;45293;-73
2022/06/08 09:42:48;;;;;;;;;6.00;4.67;;;;;26.81;47.32;100259.59;5036270;28;45560;-73
2022/06/08 09:45:28;;;;;;;;;8.00;6.33;;;;;27.10;45.66;100263.72;5039998;28;45466;-73
2022/06/08 09:51:30;;;;;;;;;5.00;5.00;;;;;27.67;45.24;100273.78;5040023;28;45352;-73
2022/06/08 09:54:09;;;;;;;;;5.00;4.33;;;;;27.67;45.23;100277.31;5039799;28;46284;-73
2022/06/08 09:56:46;;;;;;;;;5.00;5.00;;;;;27.58;45.87;100284.00;5039976;28;45458;-73
2022/06/08 09:59:39;;;;;;;;;3.33;3.33;;;;;27.41;45.58;100289.22;5039537;28;45529;-73
2022/06/08 10:02:20;;;;;;;;;3.33;3.33;;;;;27.29;46.28;100296.00;5040056;28;45300;-73
2022/06/08 10:05:03;;;;;;;;;5.00;4.00;;;;;27.17;46.48;100292.00;5039431;28;46268;-73
2022/06/08 10:07:53;;;;;;;;;6.00;6.00;;;;;27.22;46.22;100293.59;5039744;28;45397;-73
2022/06/08 10:10:32;;;;;;;;;9.00;9.00;;;;;27.16;46.30;100301.00;5039816;28;45303;-73
2022/06/08 10:13:14;;;;;;;;;5.33;5.33;;;;;26.88;46.37;100308.44;5040095;28;45503;-73
2022/06/08 10:15:46;;;;;;;;;6.33;5.00;;;;;26.40;46.74;100248.72;5039817;28;46168;-73
2022/06/08 10:18:24;;;;;;;;;7.67;6.00;;;;;26.70;47.15;100308.28;5039214;28;45596;-73
2022/06/08 10:20:59;;;;;;;;;3.00;3.00;;;;;26.58;46.88;100316.78;5039439;28;45906;-73
2022/06/08 10:23:41;;;;;;;;;3.00;2.33;;;;;26.36;48.15;100320.31;5039406;28;45228;-74
2022/06/08 10:26:20;;;;;;;;;4.00;4.00;;;;;25.94;49.32;100293.38;5039266;28;46161;-73
2022/06/08 10:28:55;;;;;;;;;4.33;3.00;;;;;25.87;49.21;100316.78;5039259;28;45294;-73
2022/06/08 10:31:56;;;;;;;;;3.00;3.00;;;;;25.86;48.94;100322.19;5039374;28;45419;-73
2022/06/08 10:34:31;;;;;;;;;4.00;3.00;;;;;25.74;50.38;100323.50;5039580;28;45354;-73
2022/06/08 10:37:04;;;;;;;;;4.00;4.00;;;;;25.57;52.03;100308.94;5039216;28;45304;-73
2022/06/08 10:39:33;;;;;;;;;6.67;6.00;;;;;25.45;51.72;100329.91;5039089;28;45466;-73
2022/06/08 10:44:59;;;;;;;;;8.67;8.67;;;;;24.81;54.54;100325.78;5039525;28;45264;-72
2022/06/08 10:47:39;;;;;;;;;12.67;11.67;;;;;24.61;55.77;100337.06;5038693;28;46326;-72
2022/06/08 10:50:04;;;;;;;;;8.00;7.33;;;;;24.41;56.02;100349.25;5039496;28;45340;-72
2022/06/08 10:52:43;;;;;;;;;9.67;8.67;;;;;24.14;57.34;100350.06;5039279;28;45573;-72
2022/06/08 10:55:18;;;;;;;;;5.00;5.00;;;;;23.99;58.52;100354.03;5038791;28;45404;-72
2022/06/08 10:58:06;;;;;;;;;6.00;6.00;;;;;23.78;59.07;100336.84;5038669;28;45718;-72
2022/06/08 11:00:58;;;;;;;;;6.33;5.67;;;;;23.97;58.41;100351.44;5038804;28;45407;-72
2022/06/08 11:03:42;;;;;;;;;13.00;9.33;;;;;23.95;59.13;100355.03;5038848;28;45346;-73
2022/06/08 11:06:29;;;;;;;;;6.00;5.33;;;;;23.86;58.51;100353.53;5038106;28;45625;-73
2022/06/08 11:08:56;;;;;;;;;5.00;5.00;;;;;23.91;59.45;100359.56;5038452;28;46245;-74
2022/06/08 11:11:42;;;;;;;;;6.00;6.00;;;;;24.10;59.04;100357.28;5039165;28;45489;-72
2022/06/08 11:14:42;;;;;;;;;6.00;5.33;;;;;24.30;58.33;100361.16;5037784;28;45489;-72
2022/06/08 11:17:17;;;;;;;;;6.00;5.00;;;;;24.40;58.04;100351.94;5027312;28;45526;-72
2022/06/08 11:19:45;;;;;;;;;8.33;8.00;;;;;24.49;59.38;100366.81;5038371;28;46118;-72
2022/06/08 11:22:21;;;;;;;;;6.67;5.67;;;;;24.32;59.03;100349.50;5038821;28;45487;-72
2022/06/08 11:24:51;;;;;;;;;10.33;7.33;;;;;24.37;59.24;100382.28;5038910;28;45454;-73
2022/06/08 11:27:29;;;;;;;;;10.00;10.00;;;;;24.28;59.53;100379.88;5038207;28;45258;-73
2022/06/08 11:30:00;;;;;;;;;6.33;6.00;;;;;23.91;59.36;100316.91;5038084;28;45354;-73
2022/06/08 11:32:26;;;;;;;;;8.00;7.00;;;;;24.44;57.98;100382.09;5038307;28;45512;-73
2022/06/08 11:35:14;;;;;;;;;8.00;7.67;;;;;24.72;57.86;100383.03;5038400;28;45264;-73
2022/06/08 11:37:43;;;;;;;;;7.00;6.00;;;;;25.16;58.62;100382.53;5007171;28;45406;-73
2022/06/08 11:40:25;;;;;;;;;7.00;6.33;;;;;25.30;57.06;100377.63;5038940;28;45233;-73
2022/06/08 11:43:15;;;;;;;;;7.00;7.00;;;;;25.43;57.60;100386.13;5038366;28;45249;-73
2022/06/08 11:45:52;;;;;;;;;5.00;5.00;;;;;25.31;57.14;100387.41;5038643;28;45313;-73
2022/06/08 11:48:30;;;;;;;;;9.33;7.67;;;;;25.11;57.48;100392.50;5038342;28;45391;-73
2022/06/08 11:51:02;;;;;;;;;5.00;4.00;;;;;24.90;58.41;100391.41;5037877;28;45544;-73
2022/06/08 11:53:33;;;;;;;;;5.33;4.67;;;;;24.80;57.56;100389.00;5037823;28;45433;-73
2022/06/08 11:56:33;;;;;;;;;7.00;6.00;;;;;24.81;57.74;100384.56;5038029;28;45452;-73
2022/06/08 11:59:05;;;;;;;;;4.00;4.00;;;;;24.93;57.30;100391.28;5038275;28;45422;-73